createdAt,value
2022-11-07T00:04:35.393Z,7.60
2022-11-07T00:14:36.785Z,7.38
2022-11-07T00:24:38.160Z,6.40
2022-11-07T00:34:39.527Z,5.90
2022-11-07T00:44:40.967Z,6.15
2022-11-07T00:54:42.398Z,9.52
2022-11-07T01:05:02.615Z,6.28
2022-11-07T01:15:05.129Z,7.68
2022-11-07T01:25:06.953Z,7.03
2022-11-07T01:35:08.401Z,9.27
2022-11-07T01:45:09.763Z,5.88
2022-11-07T01:55:11.194Z,6.65
2022-11-07T02:05:12.552Z,6.65
2022-11-07T02:15:13.889Z,5.47
2022-11-07T02:25:15.144Z,5.45
2022-11-07T02:35:16.534Z,4.35
2022-11-07T02:45:17.892Z,7.28
2022-11-07T02:55:19.282Z,6.55
2022-11-07T03:05:20.725Z,5.78
2022-11-07T03:15:21.982Z,7.60
2022-11-07T03:25:23.377Z,6.43
2022-11-07T03:35:24.777Z,4.15
2022-11-07T03:45:26.037Z,4.82
2022-11-07T03:55:27.261Z,6.50
2022-11-07T04:05:28.633Z,5.88
2022-11-07T04:15:48.860Z,8.57
2022-11-07T04:26:08.774Z,4.80
2022-11-07T04:36:10.192Z,4.85
2022-11-07T04:46:11.543Z,7.25
2022-11-07T04:56:12.904Z,6.50
2022-11-07T05:06:14.294Z,5.03
2022-11-07T05:16:17.258Z,9.40
2022-11-07T05:26:18.872Z,6.40
2022-11-07T05:36:20.230Z,8.57
2022-11-07T05:46:21.627Z,6.47
2022-11-07T05:56:22.991Z,9.35
2022-11-07T06:06:24.360Z,7.70
2022-11-07T06:16:25.754Z,6.85
2022-11-07T06:26:27.158Z,8.35
2022-11-07T06:36:28.538Z,8.18
2022-11-07T06:46:29.872Z,6.22
2022-11-07T06:56:31.485Z,9.00
2022-11-07T07:06:32.880Z,11.32
2022-11-07T07:16:34.239Z,14.70
2022-11-07T07:26:35.622Z,7.07
2022-11-07T07:36:36.984Z,6.72
2022-11-07T07:46:38.376Z,9.55
2022-11-07T07:56:39.676Z,6.28
2022-11-07T08:06:40.974Z,8.05
2022-11-07T08:16:42.326Z,6.63
2022-11-07T08:26:44.305Z,5.82
2022-11-07T08:36:45.814Z,5.88
2022-11-07T08:46:47.158Z,6.15
2022-11-07T08:56:48.459Z,9.40
2022-11-07T09:06:49.761Z,11.25
2022-11-07T09:16:51.155Z,10.18
2022-11-07T09:26:52.541Z,8.00
2022-11-07T09:36:53.920Z,13.25
2022-11-07T09:46:55.272Z,8.57
2022-11-07T09:56:58.011Z,7.32
2022-11-07T10:06:59.355Z,9.48
2022-11-07T10:17:00.776Z,5.57
2022-11-07T10:27:02.350Z,5.78
2022-11-07T10:37:03.712Z,7.38
2022-11-07T10:47:05.887Z,12.40
2022-11-07T10:57:07.334Z,6.90
2022-11-07T11:07:08.826Z,5.32
2022-11-07T11:17:10.237Z,7.70
2022-11-07T11:27:12.060Z,9.98
2022-11-07T11:37:13.417Z,4.90
2022-11-07T11:47:14.805Z,9.52
2022-11-07T11:57:16.236Z,8.50
2022-11-07T12:07:17.643Z,10.13
2022-11-07T12:17:19.002Z,7.18
2022-11-07T12:27:25.562Z,9.75
2022-11-07T12:37:28.297Z,7.22
2022-11-07T12:47:29.629Z,5.68
2022-11-07T12:57:31.001Z,7.95
2022-11-07T13:07:32.263Z,9.18
2022-11-07T13:17:33.623Z,8.88
2022-11-07T13:27:35.153Z,6.35
2022-11-07T13:37:36.416Z,6.35
2022-11-07T13:47:37.798Z,4.00
2022-11-07T13:57:39.158Z,6.47
2022-11-07T14:07:40.416Z,8.18
2022-11-07T14:17:41.705Z,18.10
2022-11-07T14:27:43.067Z,9.40
2022-11-07T14:37:44.778Z,8.27
2022-11-07T14:47:46.163Z,6.47
2022-11-07T14:57:47.422Z,6.40
2022-11-07T15:07:48.798Z,5.45
2022-11-07T15:17:50.180Z,10.07
2022-11-07T15:27:51.612Z,9.10
2022-11-07T15:37:53.341Z,8.27
2022-11-07T15:47:55.248Z,8.80
2022-11-07T15:57:57.397Z,9.15
2022-11-07T16:07:59.539Z,8.48
2022-11-07T16:18:01.553Z,6.25
2022-11-07T16:28:03.661Z,9.80
2022-11-07T16:38:05.028Z,13.13
2022-11-07T16:48:06.469Z,9.13
2022-11-07T16:58:07.818Z,8.60
2022-11-07T17:08:09.272Z,5.95
2022-11-07T17:18:10.631Z,7.55
2022-11-07T17:28:12.153Z,16.83
2022-11-07T17:38:14.496Z,14.23
2022-11-07T17:48:16.332Z,15.50
2022-11-07T17:58:17.935Z,18.25
2022-11-07T18:08:45.907Z,20.17
2022-11-07T18:18:40.646Z,33.70
2022-11-07T18:28:42.868Z,28.02
2022-11-07T18:38:44.892Z,31.35
2022-11-07T18:48:46.163Z,21.38
2022-11-07T18:58:47.560Z,25.23
2022-11-07T19:08:49.139Z,21.42
2022-11-07T19:18:50.544Z,21.92
2022-11-07T19:28:54.184Z,25.30
2022-11-07T19:38:55.511Z,22.00
2022-11-07T19:48:57.207Z,25.15
2022-11-07T19:58:58.635Z,21.08
2022-11-07T20:08:59.990Z,22.50
2022-11-07T20:19:01.279Z,16.85
2022-11-07T20:29:02.761Z,17.50
2022-11-07T20:39:04.123Z,16.48
2022-11-07T20:49:05.485Z,17.60
2022-11-07T20:59:07.120Z,16.10
2022-11-07T21:09:08.422Z,15.38
2022-11-07T21:19:09.796Z,10.75
2022-11-07T21:29:11.174Z,12.65
2022-11-07T21:39:14.316Z,10.57
2022-11-07T21:49:15.551Z,10.77
2022-11-07T21:59:18.759Z,9.27
2022-11-07T22:09:21.056Z,10.25
2022-11-07T22:19:22.414Z,13.93
2022-11-07T22:29:23.899Z,10.63
2022-11-07T22:39:25.299Z,12.25
2022-11-07T22:49:26.622Z,13.20
2022-11-07T22:59:27.999Z,17.70
2022-11-07T23:09:29.346Z,12.73
2022-11-07T23:19:30.750Z,22.55
2022-11-07T23:29:32.169Z,12.48
2022-11-07T23:39:33.552Z,12.57
2022-11-07T23:49:53.796Z,8.50
